createdAt,value
2018-08-08T00:00:42.294Z,5.90
2018-08-08T00:01:42.315Z,5.50
2018-08-08T00:02:42.322Z,5.10
2018-08-08T00:03:42.318Z,5.50
2018-08-08T00:04:42.311Z,5.60
2018-08-08T00:05:42.350Z,5.10
2018-08-08T00:06:42.359Z,5.20
2018-08-08T00:07:43.157Z,5.10
2018-08-08T00:08:42.351Z,5.10
2018-08-08T00:09:42.825Z,5.00
2018-08-08T00:10:42.349Z,5.10
2018-08-08T00:11:43.091Z,5.20
2018-08-08T00:12:42.361Z,4.80
2018-08-08T00:13:43.581Z,5.30
2018-08-08T00:14:42.433Z,5.40
2018-08-08T00:15:42.404Z,5.50
2018-08-08T00:16:43.072Z,5.40
2018-08-08T00:17:43.831Z,5.40
2018-08-08T00:18:42.379Z,5.30
2018-08-08T00:19:42.392Z,5.50
2018-08-08T00:20:42.388Z,5.20
2018-08-08T00:21:42.400Z,5.30
2018-08-08T00:22:42.407Z,5.60
2018-08-08T00:23:42.392Z,5.10
2018-08-08T00:24:42.404Z,5.30
2018-08-08T00:25:43.501Z,5.60
2018-08-08T00:26:46.059Z,5.60
2018-08-08T00:27:42.442Z,5.40
2018-08-08T00:28:42.418Z,5.30
2018-08-08T00:29:43.259Z,6.00
2018-08-08T00:30:46.188Z,5.50
2018-08-08T00:31:43.098Z,5.40
2018-08-08T00:32:42.486Z,5.30
2018-08-08T00:33:42.419Z,5.10
2018-08-08T00:34:42.514Z,5.40
2018-08-08T00:35:43.901Z,5.70
2018-08-08T00:36:42.454Z,5.60
2018-08-08T00:37:43.294Z,5.70
2018-08-08T00:38:42.484Z,5.40
2018-08-08T00:39:43.356Z,5.50
2018-08-08T00:40:42.483Z,5.20
2018-08-08T00:41:42.476Z,5.60
2018-08-08T00:42:42.493Z,5.30
2018-08-08T00:43:43.459Z,5.80
2018-08-08T00:44:42.486Z,5.70
2018-08-08T00:45:42.497Z,5.50
2018-08-08T00:46:42.499Z,5.80
2018-08-08T00:47:43.489Z,5.50
2018-08-08T00:48:42.525Z,5.20
2018-08-08T00:49:42.823Z,5.40
2018-08-08T00:50:42.506Z,5.40
2018-08-08T00:51:42.575Z,5.40
2018-08-08T00:52:46.150Z,5.70
2018-08-08T00:53:43.306Z,5.40
2018-08-08T00:54:42.507Z,5.50
2018-08-08T00:55:43.537Z,5.60
2018-08-08T00:56:42.534Z,5.60
2018-08-08T00:57:42.536Z,5.70
2018-08-08T00:58:43.094Z,5.50
2018-08-08T00:59:43.302Z,5.60
2018-08-08T01:00:42.608Z,5.40
2018-08-08T01:01:42.528Z,5.50
2018-08-08T01:02:42.548Z,5.50
2018-08-08T01:03:42.571Z,5.10
2018-08-08T01:04:42.560Z,5.50
2018-08-08T01:05:42.541Z,5.80
2018-08-08T01:06:42.587Z,5.90
2018-08-08T01:07:43.330Z,5.60
2018-08-08T01:08:42.638Z,5.70
2018-08-08T01:09:43.409Z,5.60
2018-08-08T01:10:42.589Z,5.80
2018-08-08T01:11:42.574Z,5.50
2018-08-08T01:12:42.743Z,5.40
2018-08-08T01:13:43.305Z,5.40
2018-08-08T01:14:42.577Z,5.60
2018-08-08T01:15:43.309Z,5.90
2018-08-08T01:16:42.603Z,5.70
2018-08-08T01:17:42.588Z,5.60
2018-08-08T01:18:42.677Z,5.70
2018-08-08T01:19:43.556Z,5.40
2018-08-08T01:20:42.643Z,5.50
2018-08-08T01:21:42.611Z,5.30
2018-08-08T01:22:42.616Z,5.40
2018-08-08T01:23:43.389Z,5.80
2018-08-08T01:24:42.612Z,5.60
2018-08-08T01:25:43.347Z,5.50
2018-08-08T01:26:44.499Z,6.30
2018-08-08T01:27:43.504Z,5.90
2018-08-08T01:28:45.152Z,5.90
2018-08-08T01:29:44.337Z,5.60
2018-08-08T01:30:42.642Z,5.70
2018-08-08T01:31:50.494Z,6.00
2018-08-08T01:32:44.036Z,5.70
2018-08-08T01:33:42.653Z,6.20
2018-08-08T01:34:44.008Z,6.40
2018-08-08T01:35:50.494Z,6.30
2018-08-08T01:36:43.404Z,5.70
2018-08-08T01:37:42.658Z,5.70
2018-08-08T01:38:43.340Z,5.70
2018-08-08T01:39:43.376Z,6.00
2018-08-08T01:40:43.769Z,5.80
2018-08-08T01:41:43.996Z,6.30
2018-08-08T01:42:43.408Z,6.80
2018-08-08T01:43:43.774Z,7.10
2018-08-08T01:44:43.684Z,6.90
2018-08-08T01:45:43.881Z,7.20
2018-08-08T01:46:43.765Z,7.50
2018-08-08T01:47:43.773Z,6.90
2018-08-08T01:48:43.730Z,7.10
2018-08-08T01:49:43.406Z,7.30
2018-08-08T01:50:43.773Z,7.10
2018-08-08T01:51:43.903Z,7.00
2018-08-08T01:52:43.777Z,6.90
2018-08-08T01:53:43.794Z,7.10
2018-08-08T01:54:43.789Z,6.80
2018-08-08T01:55:43.790Z,7.30
2018-08-08T01:56:43.800Z,7.00
2018-08-08T01:57:43.789Z,6.70
2018-08-08T01:58:44.024Z,6.80
2018-08-08T01:59:43.794Z,6.60
2018-08-08T02:00:43.731Z,6.80
2018-08-08T02:01:43.863Z,6.90
2018-08-08T02:02:44.337Z,6.80
2018-08-08T02:03:44.006Z,6.60
2018-08-08T02:04:45.716Z,7.00
2018-08-08T02:05:44.011Z,6.20
2018-08-08T02:06:44.343Z,6.70
2018-08-08T02:07:43.510Z,6.70
2018-08-08T02:08:43.825Z,6.20
2018-08-08T02:09:43.795Z,6.90
2018-08-08T02:10:43.477Z,7.00
2018-08-08T02:11:43.468Z,6.30
2018-08-08T02:12:43.848Z,6.50
2018-08-08T02:13:43.847Z,7.10
2018-08-08T02:14:43.868Z,6.90
2018-08-08T02:15:43.807Z,6.80
2018-08-08T02:16:43.510Z,6.40
2018-08-08T02:17:43.850Z,6.70
2018-08-08T02:18:43.854Z,7.00
2018-08-08T02:19:43.852Z,6.10
2018-08-08T02:20:43.856Z,7.00
2018-08-08T02:21:43.095Z,6.30
2018-08-08T02:22:43.495Z,6.40
2018-08-08T02:23:43.872Z,6.20
2018-08-08T02:24:43.937Z,6.70
2018-08-08T02:25:43.891Z,6.20
2018-08-08T02:26:43.965Z,6.70
2018-08-08T02:27:43.894Z,6.60
2018-08-08T02:28:44.019Z,6.60
2018-08-08T02:29:43.954Z,6.70
2018-08-08T02:30:43.965Z,6.90
2018-08-08T02:31:43.951Z,6.40
2018-08-08T02:32:43.969Z,6.80
2018-08-08T02:33:42.851Z,6.90
2018-08-08T02:34:44.022Z,6.80
2018-08-08T02:35:43.973Z,6.60
2018-08-08T02:36:43.957Z,6.80
2018-08-08T02:37:42.853Z,6.70
2018-08-08T02:38:43.896Z,6.60
2018-08-08T02:39:43.906Z,6.80
2018-08-08T02:40:44.344Z,6.90
2018-08-08T02:41:43.873Z,7.20
2018-08-08T02:42:43.886Z,7.10
2018-08-08T02:43:43.882Z,7.60
2018-08-08T02:44:43.569Z,7.10
2018-08-08T02:45:43.922Z,6.70
2018-08-08T02:46:43.893Z,7.70
2018-08-08T02:47:43.939Z,7.90
2018-08-08T02:48:43.939Z,7.80
2018-08-08T02:49:42.902Z,7.60
2018-08-08T02:50:43.876Z,7.60
2018-08-08T02:51:43.883Z,6.80
2018-08-08T02:52:44.018Z,7.30
2018-08-08T02:53:44.028Z,7.20
2018-08-08T02:54:44.564Z,7.20
2018-08-08T02:55:43.635Z,7.20
2018-08-08T02:56:44.023Z,7.40
2018-08-08T02:57:44.372Z,6.90
2018-08-08T02:58:44.029Z,6.60
2018-08-08T02:59:44.360Z,7.00
2018-08-08T03:00:44.051Z,7.20
2018-08-08T03:01:44.028Z,7.60
2018-08-08T03:02:44.545Z,7.30
2018-08-08T03:03:44.073Z,8.00
2018-08-08T03:04:42.943Z,7.40
2018-08-08T03:05:44.014Z,7.60
2018-08-08T03:06:43.695Z,7.20
2018-08-08T03:07:43.697Z,7.40
2018-08-08T03:08:43.988Z,7.10
2018-08-08T03:09:44.323Z,7.10
2018-08-08T03:10:44.074Z,7.70
2018-08-08T03:11:43.976Z,6.90
2018-08-08T03:12:44.012Z,7.10
2018-08-08T03:13:44.001Z,7.40
2018-08-08T03:14:44.355Z,6.90
2018-08-08T03:15:44.006Z,7.00
2018-08-08T03:16:44.008Z,7.10
2018-08-08T03:17:43.686Z,7.00
2018-08-08T03:18:44.061Z,7.20
2018-08-08T03:19:46.968Z,7.10
2018-08-08T03:20:44.088Z,6.80
2018-08-08T03:21:44.092Z,7.40
2018-08-08T03:22:44.105Z,7.60
2018-08-08T03:23:44.086Z,7.50
2018-08-08T03:24:43.006Z,6.90
2018-08-08T03:25:44.097Z,7.20
2018-08-08T03:26:44.103Z,7.60
2018-08-08T03:27:44.101Z,7.50
2018-08-08T03:28:43.767Z,7.40
2018-08-08T03:29:43.046Z,7.30
2018-08-08T03:30:44.109Z,7.10
2018-08-08T03:31:43.863Z,7.00
2018-08-08T03:32:43.032Z,7.00
2018-08-08T03:33:44.444Z,7.10
2018-08-08T03:34:43.127Z,7.00
2018-08-08T03:35:43.773Z,7.10
2018-08-08T03:36:43.792Z,6.70
2018-08-08T03:38:44.061Z,7.10
2018-08-08T03:39:43.724Z,7.10
2018-08-08T03:40:44.068Z,6.80
2018-08-08T03:41:44.043Z,7.30
2018-08-08T03:42:44.079Z,7.00
2018-08-08T03:43:44.065Z,7.70
2018-08-08T03:44:44.046Z,7.60
2018-08-08T03:45:44.145Z,7.30
2018-08-08T03:46:44.091Z,7.00
2018-08-08T03:47:44.153Z,7.60
2018-08-08T03:48:44.146Z,7.60
2018-08-08T03:49:44.164Z,7.60
2018-08-08T03:50:43.783Z,7.20
2018-08-08T03:51:44.158Z,7.50
2018-08-08T03:52:44.143Z,7.80
2018-08-08T03:53:43.136Z,7.80
2018-08-08T03:54:43.069Z,7.50
2018-08-08T03:55:44.183Z,7.40
2018-08-08T03:56:44.343Z,8.30
2018-08-08T03:57:44.681Z,7.80
2018-08-08T03:58:44.195Z,7.40
2018-08-08T03:59:43.099Z,7.80
2018-08-08T04:00:44.192Z,7.60
2018-08-08T04:01:43.870Z,8.20
2018-08-08T04:02:44.641Z,8.00
2018-08-08T04:03:43.865Z,7.30
2018-08-08T04:04:44.186Z,8.10
2018-08-08T04:05:43.869Z,7.60
2018-08-08T04:06:43.843Z,7.10
2018-08-08T04:07:43.878Z,7.40
2018-08-08T04:08:44.434Z,7.50
2018-08-08T04:09:44.154Z,7.60
2018-08-08T04:10:44.439Z,7.60
2018-08-08T04:11:45.929Z,7.20
2018-08-08T04:12:44.178Z,7.50
2018-08-08T04:13:43.127Z,7.20
2018-08-08T04:14:44.168Z,7.30
2018-08-08T04:15:43.880Z,6.80
2018-08-08T04:16:43.818Z,6.70
2018-08-08T04:17:43.172Z,7.50
2018-08-08T04:18:44.412Z,6.80
2018-08-08T04:19:43.188Z,6.80
2018-08-08T04:20:44.215Z,8.20
2018-08-08T04:21:43.869Z,7.60
2018-08-08T04:22:44.219Z,8.10
2018-08-08T04:23:44.251Z,7.80
2018-08-08T04:24:44.197Z,7.60
2018-08-08T04:25:44.227Z,7.90
2018-08-08T04:26:44.258Z,8.50
2018-08-08T04:27:44.251Z,7.90
2018-08-08T04:28:44.268Z,7.80
2018-08-08T04:29:44.242Z,7.90
2018-08-08T04:30:44.283Z,7.60
2018-08-08T04:31:44.276Z,8.40
2018-08-08T04:32:46.445Z,8.00
2018-08-08T04:33:45.095Z,8.10
2018-08-08T04:34:45.092Z,8.50
2018-08-08T04:35:45.441Z,8.60
2018-08-08T04:36:45.081Z,8.80
2018-08-08T04:37:45.148Z,9.00
2018-08-08T04:38:44.631Z,8.50
2018-08-08T04:39:44.868Z,9.10
2018-08-08T04:40:45.408Z,9.50
2018-08-08T04:41:44.922Z,9.50
2018-08-08T04:42:44.932Z,9.20
2018-08-08T04:43:44.930Z,8.90
2018-08-08T04:44:45.183Z,9.00
2018-08-08T04:45:45.118Z,9.20
2018-08-08T04:46:44.897Z,9.30
2018-08-08T04:47:45.070Z,9.00
2018-08-08T04:48:45.100Z,8.90
2018-08-08T04:49:45.132Z,8.60
2018-08-08T04:50:45.109Z,8.70
2018-08-08T04:51:44.877Z,8.40
2018-08-08T04:52:45.178Z,8.90
2018-08-08T04:53:45.400Z,9.70
2018-08-08T04:54:44.392Z,8.90
2018-08-08T04:55:44.952Z,9.10
2018-08-08T04:56:45.099Z,9.10
2018-08-08T04:57:45.573Z,8.70
2018-08-08T04:58:44.843Z,8.80
2018-08-08T04:59:44.871Z,9.20
2018-08-08T05:00:45.138Z,8.80
2018-08-08T05:01:45.103Z,9.60
2018-08-08T05:02:45.449Z,9.70
2018-08-08T05:03:45.346Z,9.70
2018-08-08T05:04:45.136Z,9.90
2018-08-08T05:05:45.188Z,9.80
2018-08-08T05:06:45.185Z,9.50
2018-08-08T05:07:45.590Z,10.20
2018-08-08T05:08:45.419Z,9.80
2018-08-08T05:09:44.930Z,9.90
2018-08-08T05:10:44.931Z,10.50
2018-08-08T05:11:45.186Z,10.50
2018-08-08T05:12:45.436Z,10.90
2018-08-08T05:13:45.133Z,11.10
2018-08-08T05:14:45.449Z,10.60
2018-08-08T05:15:45.162Z,10.00
2018-08-08T05:16:44.412Z,10.60
2018-08-08T05:17:44.644Z,10.90
2018-08-08T05:18:44.941Z,10.40
2018-08-08T05:19:45.438Z,10.20
2018-08-08T05:20:44.931Z,10.50
2018-08-08T05:21:45.446Z,10.80
2018-08-08T05:22:45.457Z,10.10
2018-08-08T05:23:44.925Z,10.10
2018-08-08T05:24:44.886Z,11.00
2018-08-08T05:25:44.494Z,10.80
2018-08-08T05:26:44.973Z,11.00
2018-08-08T05:27:44.939Z,10.90
2018-08-08T05:28:44.431Z,10.70
2018-08-08T05:29:45.470Z,10.60
2018-08-08T05:30:44.981Z,10.60
2018-08-08T05:31:44.895Z,10.70
2018-08-08T05:32:46.730Z,10.80
2018-08-08T05:33:46.729Z,10.50
2018-08-08T05:34:44.991Z,11.90
2018-08-08T05:35:44.954Z,10.90
2018-08-08T05:36:45.542Z,11.40
2018-08-08T05:37:45.453Z,11.20
2018-08-08T05:38:45.201Z,10.00
2018-08-08T05:39:45.175Z,10.80
2018-08-08T05:40:44.920Z,10.20
2018-08-08T05:41:45.152Z,11.40
2018-08-08T05:42:45.198Z,10.70
2018-08-08T05:43:45.206Z,10.40
2018-08-08T05:44:44.492Z,10.70
2018-08-08T05:45:45.207Z,10.60
2018-08-08T05:46:45.161Z,10.20
2018-08-08T05:47:44.966Z,10.60
2018-08-08T05:48:44.915Z,11.10
2018-08-08T05:49:45.158Z,9.80
2018-08-08T05:50:45.662Z,9.90
2018-08-08T05:51:44.916Z,11.00
2018-08-08T05:52:44.843Z,10.90
2018-08-08T05:53:45.459Z,10.50
2018-08-08T05:54:45.464Z,10.20
2018-08-08T05:55:45.471Z,10.30
2018-08-08T05:56:45.214Z,11.00
2018-08-08T05:57:45.110Z,12.20
2018-08-08T05:58:45.108Z,10.50
2018-08-08T05:59:45.110Z,11.00
2018-08-08T06:00:45.116Z,11.10
2018-08-08T06:01:45.115Z,11.30
2018-08-08T06:02:45.465Z,11.10
2018-08-08T06:03:45.229Z,11.20
2018-08-08T06:04:45.109Z,11.40
2018-08-08T06:05:45.035Z,10.90
2018-08-08T06:06:47.118Z,11.90
2018-08-08T06:07:45.001Z,12.70
2018-08-08T06:08:45.449Z,10.40
2018-08-08T06:09:46.080Z,10.70
2018-08-08T06:10:45.459Z,11.20
2018-08-08T06:11:43.514Z,10.80
2018-08-08T06:12:44.911Z,10.60
2018-08-08T06:13:44.227Z,10.60
2018-08-08T06:14:45.491Z,10.80
2018-08-08T06:15:43.390Z,11.30
2018-08-08T06:16:43.743Z,11.20
2018-08-08T06:17:43.458Z,11.00
2018-08-08T06:18:44.113Z,11.10
2018-08-08T06:19:45.169Z,11.60
2018-08-08T06:20:43.398Z,11.30
2018-08-08T06:21:44.978Z,11.70
2018-08-08T06:22:44.997Z,11.90
2018-08-08T06:23:44.286Z,11.30
2018-08-08T06:24:45.020Z,11.80
2018-08-08T06:25:44.320Z,11.20
2018-08-08T06:26:44.528Z,12.00
2018-08-08T06:27:43.399Z,12.00
2018-08-08T06:28:43.441Z,12.30
2018-08-08T06:29:43.435Z,12.50
2018-08-08T06:30:44.881Z,12.00
2018-08-08T06:31:44.991Z,12.90
2018-08-08T06:32:45.125Z,13.50
2018-08-08T06:33:43.428Z,13.00
2018-08-08T06:34:43.563Z,13.20
2018-08-08T06:35:44.985Z,12.70
2018-08-08T06:36:45.115Z,12.70
2018-08-08T06:37:45.638Z,12.70
2018-08-08T06:38:45.000Z,13.00
2018-08-08T06:39:44.573Z,12.60
2018-08-08T06:40:44.164Z,12.70
2018-08-08T06:41:44.981Z,12.10
2018-08-08T06:42:43.486Z,12.10
2018-08-08T06:43:44.978Z,11.60
2018-08-08T06:44:45.127Z,11.20
2018-08-08T06:45:45.492Z,11.40
2018-08-08T06:46:44.463Z,11.40
2018-08-08T06:47:43.791Z,11.50
2018-08-08T06:48:45.131Z,11.10
2018-08-08T06:49:44.984Z,11.10
2018-08-08T06:50:44.701Z,10.10
2018-08-08T06:51:44.647Z,10.70
2018-08-08T06:52:44.227Z,11.20
2018-08-08T06:53:44.502Z,11.20
2018-08-08T06:54:44.176Z,11.10
2018-08-08T06:55:44.426Z,11.00
2018-08-08T06:56:45.620Z,11.00
2018-08-08T06:57:44.702Z,11.10
2018-08-08T06:58:44.567Z,10.90
2018-08-08T06:59:44.704Z,11.10
2018-08-08T07:00:44.699Z,10.60
2018-08-08T07:01:44.255Z,10.70
2018-08-08T07:02:44.634Z,10.90
2018-08-08T07:03:44.688Z,11.30
2018-08-08T07:04:45.123Z,10.90
2018-08-08T07:05:45.439Z,10.70
2018-08-08T07:06:45.473Z,10.40
2018-08-08T07:07:45.398Z,9.30
2018-08-08T07:08:45.100Z,10.20
2018-08-08T07:09:45.347Z,9.60
2018-08-08T07:10:45.480Z,9.60
2018-08-08T07:11:44.984Z,10.10
2018-08-08T07:12:45.029Z,9.10
2018-08-08T07:13:45.623Z,9.30
2018-08-08T07:14:45.144Z,9.90
2018-08-08T07:15:45.238Z,9.90
2018-08-08T07:16:45.145Z,9.00
2018-08-08T07:17:45.007Z,9.40
2018-08-08T07:18:45.017Z,8.50
2018-08-08T07:19:45.558Z,8.80
2018-08-08T07:20:45.195Z,8.70
2018-08-08T07:21:45.007Z,8.00
2018-08-08T07:22:45.007Z,8.60
2018-08-08T07:23:44.650Z,8.40
2018-08-08T07:24:45.036Z,13.40
2018-08-08T07:25:45.502Z,11.00
2018-08-08T07:26:45.132Z,9.70
2018-08-08T07:27:45.166Z,9.30
2018-08-08T07:28:44.994Z,8.60
2018-08-08T07:29:45.151Z,8.50
2018-08-08T07:30:44.963Z,8.60
2018-08-08T07:31:44.969Z,8.30
2018-08-08T07:32:45.150Z,8.10
2018-08-08T07:33:45.195Z,8.30
2018-08-08T07:34:45.506Z,7.50
2018-08-08T07:35:45.547Z,7.90
2018-08-08T07:36:46.834Z,7.60
2018-08-08T07:37:45.292Z,7.70
2018-08-08T07:38:45.161Z,7.40
2018-08-08T07:39:47.094Z,8.10
2018-08-08T07:40:45.147Z,7.80
2018-08-08T07:41:45.597Z,7.60
2018-08-08T07:42:45.020Z,7.60
2018-08-08T07:43:45.253Z,7.20
2018-08-08T07:44:45.806Z,7.40
2018-08-08T07:45:45.240Z,7.50
2018-08-08T07:46:45.749Z,7.20
2018-08-08T07:47:45.012Z,7.60
2018-08-08T07:48:45.023Z,7.70
2018-08-08T07:49:45.490Z,7.00
2018-08-08T07:50:45.168Z,7.10
2018-08-08T07:51:45.233Z,7.70
2018-08-08T07:52:44.744Z,7.00
2018-08-08T07:53:45.657Z,7.70
2018-08-08T07:54:45.268Z,7.30
2018-08-08T07:55:45.538Z,7.00
2018-08-08T07:56:45.444Z,6.90
2018-08-08T07:57:45.450Z,7.10
2018-08-08T07:58:45.043Z,6.80
2018-08-08T07:59:45.594Z,6.90
2018-08-08T08:00:45.700Z,7.10
2018-08-08T08:01:45.497Z,7.40
2018-08-08T08:02:45.162Z,7.10
2018-08-08T08:03:45.561Z,7.50
2018-08-08T08:04:45.632Z,7.00
2018-08-08T08:05:45.024Z,7.30
2018-08-08T08:06:45.074Z,7.30
2018-08-08T08:07:45.175Z,7.50
2018-08-08T08:08:45.168Z,6.70
2018-08-08T08:09:45.244Z,7.40
2018-08-08T08:10:45.160Z,7.20
2018-08-08T08:11:44.732Z,7.00
2018-08-08T08:12:45.588Z,7.20
2018-08-08T08:13:45.231Z,7.80
2018-08-08T08:14:45.091Z,7.00
2018-08-08T08:15:45.574Z,7.20
2018-08-08T08:16:45.534Z,7.90
2018-08-08T08:17:44.720Z,7.70
2018-08-08T08:18:45.169Z,7.70
2018-08-08T08:19:45.560Z,8.10
2018-08-08T08:20:45.241Z,7.80
2018-08-08T08:21:45.330Z,8.00
2018-08-08T08:22:45.630Z,8.60
2018-08-08T08:23:45.292Z,8.00
2018-08-08T08:24:45.688Z,8.30
2018-08-08T08:25:45.094Z,7.80
2018-08-08T08:26:45.070Z,8.10
2018-08-08T08:27:45.535Z,8.30
2018-08-08T08:28:45.176Z,8.80
2018-08-08T08:29:45.205Z,8.00
2018-08-08T08:30:45.176Z,8.40
2018-08-08T08:31:45.171Z,8.00
2018-08-08T08:32:45.526Z,8.30
2018-08-08T08:33:45.126Z,8.70
2018-08-08T08:34:45.223Z,8.80
2018-08-08T08:35:45.592Z,8.00
2018-08-08T08:36:45.674Z,8.90
2018-08-08T08:37:45.612Z,8.90
2018-08-08T08:38:45.174Z,8.40
2018-08-08T08:39:45.229Z,8.50
2018-08-08T08:40:45.177Z,8.40
2018-08-08T08:41:45.179Z,8.30
2018-08-08T08:42:45.235Z,8.70
2018-08-08T08:43:45.270Z,9.20
2018-08-08T08:45:12.888Z,9.20
2018-08-08T08:45:45.248Z,9.20
2018-08-08T08:46:45.492Z,8.50
2018-08-08T08:47:45.223Z,9.50
2018-08-08T08:48:45.260Z,9.50
2018-08-08T08:49:44.839Z,10.20
2018-08-08T08:50:45.636Z,9.20
2018-08-08T08:51:45.186Z,9.50
2018-08-08T08:52:45.058Z,10.30
2018-08-08T08:53:47.199Z,10.10
2018-08-08T08:54:45.251Z,9.80
2018-08-08T08:55:45.596Z,10.00
2018-08-08T08:56:43.775Z,10.50
2018-08-08T08:57:44.826Z,10.70
2018-08-08T08:58:45.179Z,10.30
2018-08-08T08:59:45.228Z,11.10
2018-08-08T09:00:45.235Z,11.40
2018-08-08T09:01:45.628Z,10.00
2018-08-08T09:02:47.228Z,10.20
2018-08-08T09:03:45.258Z,10.50
2018-08-08T09:04:45.116Z,11.00
2018-08-08T09:05:45.186Z,11.00
2018-08-08T09:06:45.246Z,10.60
2018-08-08T09:07:46.501Z,10.60
2018-08-08T09:08:45.220Z,11.10
2018-08-08T09:09:45.751Z,10.90
2018-08-08T09:10:45.712Z,11.20
2018-08-08T09:11:45.232Z,11.80
2018-08-08T09:12:45.203Z,12.20
2018-08-08T09:13:45.645Z,11.50
2018-08-08T09:14:47.392Z,12.80
2018-08-08T09:15:44.905Z,12.70
2018-08-08T09:16:47.190Z,12.50
2018-08-08T09:17:45.652Z,12.70
2018-08-08T09:18:45.267Z,12.60
2018-08-08T09:19:45.560Z,12.80
2018-08-08T09:20:45.774Z,12.50
2018-08-08T09:21:44.928Z,12.20
2018-08-08T09:22:45.226Z,12.50
2018-08-08T09:23:45.193Z,12.20
2018-08-08T09:24:45.024Z,12.20
2018-08-08T09:25:45.194Z,12.30
2018-08-08T09:26:45.711Z,13.50
2018-08-08T09:27:47.209Z,12.70
2018-08-08T09:28:45.242Z,12.80
2018-08-08T09:29:45.710Z,12.20
2018-08-08T09:30:45.286Z,12.80
2018-08-08T09:31:45.781Z,12.30
2018-08-08T09:32:44.928Z,13.20
2018-08-08T09:33:45.254Z,13.30
2018-08-08T09:34:45.699Z,13.30
2018-08-08T09:35:45.636Z,13.20
2018-08-08T09:36:45.256Z,12.70
2018-08-08T09:37:45.845Z,13.30
2018-08-08T09:38:45.589Z,13.30
2018-08-08T09:39:45.253Z,12.50
2018-08-08T09:40:45.537Z,12.10
2018-08-08T09:41:46.158Z,12.10
2018-08-08T09:42:45.212Z,11.90
2018-08-08T09:43:46.061Z,12.60
2018-08-08T09:44:46.068Z,12.50
2018-08-08T09:45:45.255Z,12.80
2018-08-08T09:46:45.284Z,13.30
2018-08-08T09:47:45.704Z,13.20
2018-08-08T09:48:45.265Z,12.90
2018-08-08T09:49:45.580Z,13.00
2018-08-08T09:50:45.810Z,13.20
2018-08-08T09:51:45.245Z,12.60
2018-08-08T09:52:46.062Z,12.90
2018-08-08T09:53:45.806Z,13.70
2018-08-08T09:54:45.267Z,13.30
2018-08-08T09:55:45.262Z,13.40
2018-08-08T09:56:46.072Z,14.10
2018-08-08T09:57:45.261Z,13.60
2018-08-08T09:58:46.217Z,13.10
2018-08-08T09:59:45.659Z,14.30
2018-08-08T10:00:46.687Z,13.80
2018-08-08T10:01:45.711Z,14.60
2018-08-08T10:02:45.572Z,14.10
2018-08-08T10:03:45.069Z,13.50
2018-08-08T10:04:45.814Z,13.90
2018-08-08T10:05:45.673Z,14.50
2018-08-08T10:06:45.275Z,14.50
2018-08-08T10:07:45.840Z,14.10
2018-08-08T10:08:46.082Z,14.80
2018-08-08T10:09:45.231Z,15.00
2018-08-08T10:10:46.055Z,15.30
2018-08-08T10:11:46.066Z,14.10
2018-08-08T10:12:45.282Z,14.10
2018-08-08T10:13:45.085Z,14.00
2018-08-08T10:14:46.007Z,14.20
2018-08-08T10:15:45.217Z,14.60
2018-08-08T10:16:45.744Z,15.20
2018-08-08T10:17:45.720Z,14.50
2018-08-08T10:18:45.206Z,15.30
2018-08-08T10:19:45.717Z,14.10
2018-08-08T10:20:45.277Z,15.00
2018-08-08T10:21:45.052Z,14.30
2018-08-08T10:22:46.211Z,14.60
2018-08-08T10:23:45.226Z,14.50
2018-08-08T10:24:45.062Z,14.90
2018-08-08T10:25:46.077Z,15.30
2018-08-08T10:26:45.785Z,14.70
2018-08-08T10:27:44.997Z,14.50
2018-08-08T10:28:45.735Z,14.50
2018-08-08T10:29:46.072Z,15.50
2018-08-08T10:30:45.093Z,15.00
2018-08-08T10:31:45.719Z,15.90
2018-08-08T10:32:46.175Z,15.20
2018-08-08T10:33:45.449Z,15.50
2018-08-08T10:34:46.090Z,15.00
2018-08-08T10:35:45.870Z,15.20
2018-08-08T10:36:45.484Z,14.00
2018-08-08T10:37:46.098Z,14.60
2018-08-08T10:38:46.095Z,15.20
2018-08-08T10:39:45.234Z,15.50
2018-08-08T10:40:45.702Z,14.00
2018-08-08T10:41:46.095Z,15.20
2018-08-08T10:42:45.757Z,14.40
2018-08-08T10:43:45.480Z,14.50
2018-08-08T10:44:45.575Z,15.60
2018-08-08T10:45:45.876Z,15.40
2018-08-08T10:46:46.131Z,16.20
2018-08-08T10:47:45.583Z,15.50
2018-08-08T10:48:45.568Z,15.60
2018-08-08T10:49:45.937Z,16.10
2018-08-08T10:50:45.734Z,14.80
2018-08-08T10:51:47.328Z,14.90
2018-08-08T10:52:45.755Z,16.30
2018-08-08T10:53:45.801Z,15.90
2018-08-08T10:54:45.860Z,15.60
2018-08-08T10:55:45.865Z,16.80
2018-08-08T10:56:45.790Z,16.00
2018-08-08T10:57:45.643Z,16.00
2018-08-08T10:58:45.744Z,16.50
2018-08-08T10:59:46.965Z,16.40
2018-08-08T11:00:46.101Z,16.30
2018-08-08T11:01:45.844Z,16.50
2018-08-08T11:02:45.843Z,16.80
2018-08-08T11:03:46.182Z,18.00
2018-08-08T11:04:45.772Z,17.00
2018-08-08T11:05:46.135Z,17.60
2018-08-08T11:06:45.247Z,18.30
2018-08-08T11:07:45.739Z,16.90
2018-08-08T11:08:45.808Z,16.30
2018-08-08T11:09:45.746Z,16.60
2018-08-08T11:10:45.746Z,16.00
2018-08-08T11:11:45.800Z,15.90
2018-08-08T11:12:45.765Z,16.60
2018-08-08T11:13:45.122Z,17.50
2018-08-08T11:14:45.596Z,16.60
2018-08-08T11:15:46.129Z,17.50
2018-08-08T11:16:45.771Z,16.30
2018-08-08T11:17:47.897Z,16.60
2018-08-08T11:18:46.113Z,17.10
2018-08-08T11:19:45.799Z,15.90
2018-08-08T11:20:46.145Z,16.10
2018-08-08T11:21:45.814Z,17.30
2018-08-08T11:22:47.819Z,16.80
2018-08-08T11:23:45.350Z,16.20
2018-08-08T11:24:45.249Z,16.00
2018-08-08T11:25:45.793Z,16.70
2018-08-08T11:26:45.752Z,15.90
2018-08-08T11:27:47.753Z,16.30
2018-08-08T11:28:45.542Z,16.20
2018-08-08T11:29:45.786Z,15.60
2018-08-08T11:30:45.805Z,16.40
2018-08-08T11:31:45.810Z,16.50
2018-08-08T11:32:45.858Z,17.20
2018-08-08T11:33:45.822Z,16.60
2018-08-08T11:34:46.002Z,16.90
2018-08-08T11:35:45.616Z,16.50
2018-08-08T11:36:46.125Z,16.10
2018-08-08T11:37:46.111Z,16.80
2018-08-08T11:38:45.881Z,17.50
2018-08-08T11:39:45.852Z,16.40
2018-08-08T11:40:45.600Z,16.70
2018-08-08T11:41:45.613Z,16.90
2018-08-08T11:42:45.619Z,16.90
2018-08-08T11:43:45.721Z,16.80
2018-08-08T11:44:45.757Z,16.30
2018-08-08T11:45:46.102Z,17.50
2018-08-08T11:46:46.360Z,15.70
2018-08-08T11:47:45.680Z,16.90
2018-08-08T11:48:47.660Z,16.30
2018-08-08T11:49:45.764Z,15.90
2018-08-08T11:50:46.143Z,16.50
2018-08-08T11:51:46.120Z,15.50
2018-08-08T11:52:46.220Z,16.10
2018-08-08T11:53:45.860Z,16.60
2018-08-08T11:54:45.764Z,16.40
2018-08-08T11:55:45.764Z,15.70
2018-08-08T11:56:45.511Z,16.20
2018-08-08T11:57:45.728Z,15.70
2018-08-08T11:58:45.786Z,16.60
2018-08-08T11:59:46.307Z,16.00
2018-08-08T12:00:45.764Z,15.50
2018-08-08T12:01:45.830Z,16.00
2018-08-08T12:02:45.365Z,15.40
2018-08-08T12:03:48.266Z,15.30
2018-08-08T12:04:45.841Z,13.90
2018-08-08T12:05:45.595Z,14.40
2018-08-08T12:06:45.819Z,14.50
2018-08-08T12:07:46.238Z,14.20
2018-08-08T12:08:46.382Z,15.40
2018-08-08T12:09:45.794Z,14.70
2018-08-08T12:10:45.707Z,14.60
2018-08-08T12:11:45.629Z,14.60
2018-08-08T12:12:46.130Z,15.00
2018-08-08T12:13:45.930Z,13.60
2018-08-08T12:14:45.790Z,14.20
2018-08-08T12:15:45.678Z,13.00
2018-08-08T12:16:46.001Z,12.90
2018-08-08T12:17:45.719Z,13.00
2018-08-08T12:18:45.777Z,12.80
2018-08-08T12:19:45.722Z,14.10
2018-08-08T12:20:45.984Z,13.00
2018-08-08T12:21:47.567Z,11.80
2018-08-08T12:22:46.233Z,11.80
2018-08-08T12:23:46.138Z,11.30
2018-08-08T12:24:46.143Z,11.40
2018-08-08T12:25:45.904Z,12.20
2018-08-08T12:26:46.383Z,11.80
2018-08-08T12:27:46.126Z,10.50
2018-08-08T12:28:46.358Z,10.40
2018-08-08T12:29:45.413Z,9.20
2018-08-08T12:30:46.185Z,9.40
2018-08-08T12:31:48.129Z,9.70
2018-08-08T12:32:46.330Z,8.80
2018-08-08T12:33:45.805Z,8.50
2018-08-08T12:34:47.488Z,8.20
2018-08-08T12:35:45.857Z,7.50
2018-08-08T12:36:46.132Z,7.50
2018-08-08T12:37:46.353Z,7.80
2018-08-08T12:38:45.787Z,8.40
2018-08-08T12:39:46.300Z,8.30
2018-08-08T12:40:46.170Z,7.70
2018-08-08T12:41:46.248Z,7.70
2018-08-08T12:42:45.896Z,7.40
2018-08-08T12:43:46.793Z,7.50
2018-08-08T12:44:46.376Z,7.70
2018-08-08T12:45:48.146Z,7.50
2018-08-08T12:46:47.788Z,7.90
2018-08-08T12:47:47.795Z,6.80
2018-08-08T12:48:45.792Z,6.40
2018-08-08T12:49:46.312Z,7.20
2018-08-08T12:50:45.829Z,6.80
2018-08-08T12:51:46.102Z,7.10
2018-08-08T12:52:46.615Z,6.60
2018-08-08T12:53:46.134Z,7.40
2018-08-08T12:54:46.316Z,7.00
2018-08-08T12:55:46.649Z,7.40
2018-08-08T12:56:46.293Z,7.50
2018-08-08T12:57:46.132Z,7.20
2018-08-08T12:58:46.295Z,6.40
2018-08-08T12:59:45.874Z,7.00
2018-08-08T13:00:46.443Z,6.10
2018-08-08T13:01:46.633Z,6.40
2018-08-08T13:02:46.349Z,6.10
2018-08-08T13:03:46.503Z,6.60
2018-08-08T13:04:46.116Z,6.50
2018-08-08T13:05:46.304Z,6.40
2018-08-08T13:06:46.664Z,6.30
2018-08-08T13:07:46.304Z,6.80
2018-08-08T13:08:46.372Z,6.20